createdAt,value
2018-09-25T00:01:37.532Z,6.10
2018-09-25T00:06:51.909Z,6.10
2018-09-25T00:09:26.986Z,6.00
2018-09-25T00:12:01.802Z,6.00
2018-09-25T00:14:36.516Z,5.90
2018-09-25T00:17:11.398Z,5.90
2018-09-25T00:19:46.176Z,5.90
2018-09-25T00:22:21.419Z,5.90
2018-09-25T00:24:57.274Z,5.90
2018-09-25T00:27:32.945Z,5.90
2018-09-25T00:30:08.363Z,5.90
2018-09-25T00:32:43.244Z,5.90
2018-09-25T00:35:18.106Z,5.90
2018-09-25T00:37:53.133Z,5.80
2018-09-25T00:40:27.767Z,5.80
2018-09-25T00:43:03.703Z,5.70
2018-09-25T00:45:39.294Z,5.70
2018-09-25T00:48:14.992Z,5.60
2018-09-25T00:50:50.153Z,5.60
2018-09-25T00:53:24.960Z,5.60
2018-09-25T00:56:00.281Z,5.60
2018-09-25T00:58:35.391Z,5.60
2018-09-25T01:01:10.161Z,5.50
2018-09-25T01:03:45.033Z,5.50
2018-09-25T01:06:20.319Z,5.50
2018-09-25T01:08:55.107Z,5.40
2018-09-25T01:11:30.862Z,5.40
2018-09-25T01:14:06.220Z,5.40
2018-09-25T01:16:41.496Z,5.40
2018-09-25T01:19:17.298Z,5.30
2018-09-25T01:21:52.409Z,5.30
2018-09-25T01:24:27.507Z,5.30
2018-09-25T01:27:02.924Z,5.30
2018-09-25T01:29:38.701Z,5.20
2018-09-25T01:32:14.048Z,5.20
2018-09-25T01:34:48.730Z,5.20
2018-09-25T01:37:23.486Z,5.20
2018-09-25T01:39:58.214Z,5.10
2018-09-25T01:42:32.922Z,5.10
2018-09-25T01:45:08.546Z,5.00
2018-09-25T01:47:43.289Z,5.00
2018-09-25T01:50:18.575Z,5.00
2018-09-25T01:52:53.432Z,5.00
2018-09-25T01:55:28.343Z,5.00
2018-09-25T01:58:04.612Z,5.00
2018-09-25T02:00:40.115Z,4.90
2018-09-25T02:03:21.520Z,4.90
2018-09-25T02:06:01.125Z,4.90
2018-09-25T02:08:36.066Z,4.90
2018-09-25T02:11:11.120Z,4.90
2018-09-25T02:13:45.799Z,4.80
2018-09-25T02:16:20.579Z,4.80
2018-09-25T02:18:56.005Z,4.80
2018-09-25T02:21:30.819Z,4.90
2018-09-25T02:24:05.691Z,4.90
2018-09-25T02:26:41.061Z,4.90
2018-09-25T02:29:15.823Z,4.90
2018-09-25T02:31:51.357Z,4.90
2018-09-25T02:34:25.825Z,4.90
2018-09-25T02:37:00.693Z,5.00
2018-09-25T02:39:35.623Z,5.00
2018-09-25T02:42:10.520Z,5.00
2018-09-25T02:44:45.842Z,4.90
2018-09-25T02:47:21.484Z,4.90
2018-09-25T02:49:56.654Z,4.90
2018-09-25T02:52:32.424Z,4.90
2018-09-25T02:55:07.010Z,4.90
2018-09-25T02:57:41.557Z,4.90
2018-09-25T03:00:16.341Z,4.90
2018-09-25T03:02:51.004Z,4.90
2018-09-25T03:05:25.738Z,4.90
2018-09-25T03:08:00.606Z,4.90
2018-09-25T03:10:35.199Z,4.90
2018-09-25T03:13:13.978Z,4.90
2018-09-25T03:15:48.758Z,4.90
2018-09-25T03:18:23.507Z,4.90
2018-09-25T03:20:58.053Z,4.80
2018-09-25T03:23:32.760Z,4.80
2018-09-25T03:26:07.351Z,4.80
2018-09-25T03:28:42.107Z,4.80
2018-09-25T03:31:16.727Z,4.80
2018-09-25T03:33:52.086Z,4.70
2018-09-25T03:36:26.871Z,4.70
2018-09-25T03:39:02.112Z,4.70
2018-09-25T03:41:37.466Z,4.70
2018-09-25T03:44:12.218Z,4.70
2018-09-25T03:46:47.846Z,4.70
2018-09-25T03:49:22.620Z,4.70
2018-09-25T03:51:57.357Z,4.70
2018-09-25T03:54:32.010Z,4.70
2018-09-25T03:57:06.780Z,4.70
2018-09-25T03:59:41.599Z,4.70
2018-09-25T04:02:16.932Z,4.60
2018-09-25T04:04:52.028Z,4.60
2018-09-25T04:07:27.304Z,4.60
2018-09-25T04:10:02.101Z,4.60
2018-09-25T04:12:37.656Z,4.50
2018-09-25T04:15:16.847Z,4.50
2018-09-25T04:17:51.820Z,4.50
2018-09-25T04:20:26.586Z,4.50
2018-09-25T04:23:01.333Z,4.50
2018-09-25T04:25:36.837Z,4.40
2018-09-25T04:28:11.593Z,4.40
2018-09-25T04:30:46.371Z,4.40
2018-09-25T04:33:21.161Z,4.40
2018-09-25T04:35:55.963Z,4.30
2018-09-25T04:38:30.865Z,4.30
2018-09-25T04:41:05.509Z,4.30
2018-09-25T04:43:40.395Z,4.30
2018-09-25T04:46:15.343Z,4.20
2018-09-25T04:48:50.683Z,4.20
2018-09-25T04:51:27.433Z,4.20
2018-09-25T04:54:02.058Z,4.20
2018-09-25T04:56:38.667Z,4.20
2018-09-25T04:59:13.701Z,4.10
2018-09-25T05:01:49.936Z,4.10
2018-09-25T05:04:25.962Z,4.10
2018-09-25T05:07:02.179Z,4.10
2018-09-25T05:09:36.850Z,4.00
2018-09-25T05:12:11.871Z,4.10
2018-09-25T05:14:46.883Z,4.10
2018-09-25T05:17:21.678Z,4.20
2018-09-25T05:19:57.290Z,4.30
2018-09-25T05:22:32.209Z,4.40
2018-09-25T05:25:07.552Z,4.50
2018-09-25T05:27:42.528Z,4.60
2018-09-25T05:30:17.166Z,4.70
2018-09-25T05:32:51.937Z,4.70
2018-09-25T05:35:26.713Z,4.80
2018-09-25T05:38:02.074Z,4.90
2018-09-25T05:40:36.795Z,4.90
2018-09-25T05:43:11.862Z,4.90
2018-09-25T05:45:46.512Z,4.90
2018-09-25T05:48:22.119Z,4.90
2018-09-25T05:50:57.304Z,5.00
2018-09-25T05:53:32.099Z,5.00
2018-09-25T05:56:06.851Z,5.10
2018-09-25T05:58:41.851Z,5.10
2018-09-25T06:01:18.809Z,5.20
2018-09-25T06:03:54.519Z,5.20
2018-09-25T06:06:37.695Z,5.30
2018-09-25T06:09:14.351Z,5.40
2018-09-25T06:11:49.275Z,5.50
2018-09-25T06:14:23.983Z,5.60
2018-09-25T06:16:59.017Z,5.70
2018-09-25T06:19:33.692Z,5.80
2018-09-25T06:22:08.623Z,5.90
2018-09-25T06:24:46.032Z,6.00
2018-09-25T06:27:21.784Z,6.10
2018-09-25T06:29:56.726Z,6.10
2018-09-25T06:32:31.734Z,6.20
2018-09-25T06:35:06.310Z,6.20
2018-09-25T06:37:41.663Z,6.20
2018-09-25T06:40:16.733Z,6.20
2018-09-25T06:42:51.733Z,6.30
2018-09-25T06:45:26.347Z,6.30
2018-09-25T06:48:01.865Z,6.30
2018-09-25T06:50:37.099Z,6.40
2018-09-25T06:53:11.912Z,6.40
2018-09-25T06:55:46.553Z,6.50
2018-09-25T06:58:22.348Z,6.60
2018-09-25T07:00:57.186Z,6.70
2018-09-25T07:03:32.041Z,6.70
2018-09-25T07:06:06.786Z,6.80
2018-09-25T07:08:41.701Z,6.90
2018-09-25T07:11:16.597Z,7.00
2018-09-25T07:13:51.425Z,7.10
2018-09-25T07:16:26.501Z,7.10
2018-09-25T07:19:02.003Z,7.20
2018-09-25T07:21:36.853Z,7.40
2018-09-25T07:24:12.545Z,7.50
2018-09-25T07:26:47.394Z,7.60
2018-09-25T07:29:22.305Z,7.70
2018-09-25T07:31:57.698Z,7.80
2018-09-25T07:34:32.975Z,7.90
2018-09-25T07:37:08.086Z,8.10
2018-09-25T07:39:42.798Z,8.30
2018-09-25T07:42:18.417Z,8.50
2018-09-25T07:44:53.092Z,8.70
2018-09-25T07:47:27.911Z,9.00
2018-09-25T07:50:03.099Z,9.20
2018-09-25T07:52:39.106Z,9.30
2018-09-25T07:55:14.425Z,9.50
2018-09-25T07:57:49.094Z,9.70
2018-09-25T08:00:24.020Z,9.90
2018-09-25T08:02:59.101Z,10.10
2018-09-25T08:05:34.536Z,10.20
2018-09-25T08:08:09.542Z,10.40
2018-09-25T08:10:44.754Z,10.60
2018-09-25T08:13:20.308Z,10.80
2018-09-25T08:15:55.110Z,10.90
2018-09-25T08:18:29.925Z,10.90
2018-09-25T08:21:04.875Z,11.00
2018-09-25T08:23:40.304Z,11.00
2018-09-25T08:26:15.557Z,11.10
2018-09-25T08:28:50.449Z,11.20
2018-09-25T08:31:25.923Z,11.30
2018-09-25T08:34:00.992Z,11.30
2018-09-25T08:36:35.785Z,11.40
2018-09-25T08:39:14.110Z,11.40
2018-09-25T08:41:50.311Z,11.40
2018-09-25T08:44:25.572Z,11.40
2018-09-25T08:47:00.507Z,11.50
2018-09-25T08:49:36.056Z,11.60
2018-09-25T08:52:12.401Z,11.70
2018-09-25T08:54:48.000Z,11.70
2018-09-25T08:57:22.521Z,11.80
2018-09-25T08:59:58.273Z,11.90
2018-09-25T09:02:34.386Z,11.90
2018-09-25T09:05:09.135Z,12.00
2018-09-25T09:07:44.385Z,12.00
2018-09-25T09:10:19.108Z,12.00
2018-09-25T09:12:53.858Z,12.00
2018-09-25T09:15:28.440Z,12.00
2018-09-25T09:18:03.053Z,12.10
2018-09-25T09:20:38.396Z,12.10
2018-09-25T09:23:13.024Z,12.30
2018-09-25T09:25:47.772Z,12.40
2018-09-25T09:28:22.396Z,12.50
2018-09-25T09:30:57.179Z,12.70
2018-09-25T09:33:31.918Z,12.90
2018-09-25T09:36:07.269Z,13.10
2018-09-25T09:38:42.086Z,13.40
2018-09-25T09:41:16.832Z,13.70
2018-09-25T09:43:51.756Z,13.90
2018-09-25T09:46:27.046Z,14.20
2018-09-25T09:49:01.837Z,14.50
2018-09-25T09:51:37.853Z,14.80
2018-09-25T09:54:13.734Z,15.00
2018-09-25T09:56:49.812Z,15.20
2018-09-25T09:59:24.625Z,15.40
2018-09-25T10:02:00.621Z,15.40
2018-09-25T10:04:36.017Z,15.50
2018-09-25T10:07:11.245Z,15.60
2018-09-25T10:09:47.077Z,15.90
2018-09-25T10:12:22.485Z,16.00
2018-09-25T10:14:57.242Z,16.20
2018-09-25T10:17:32.339Z,16.30
2018-09-25T10:20:12.219Z,16.40
2018-09-25T10:22:47.089Z,16.50
2018-09-25T10:25:21.975Z,16.60
2018-09-25T10:27:56.714Z,16.80
2018-09-25T10:30:32.287Z,17.00
2018-09-25T10:33:07.055Z,17.10
2018-09-25T10:35:42.138Z,17.20
2018-09-25T10:38:16.896Z,17.30
2018-09-25T10:40:51.951Z,17.40
2018-09-25T10:43:28.282Z,17.50
2018-09-25T10:46:03.235Z,17.70
2018-09-25T10:48:42.415Z,17.80
2018-09-25T10:51:18.124Z,17.90
2018-09-25T10:53:53.186Z,18.00
2018-09-25T10:56:29.516Z,17.90
2018-09-25T10:59:04.322Z,17.70
2018-09-25T11:01:39.121Z,17.60
2018-09-25T11:04:14.035Z,17.40
2018-09-25T11:06:54.049Z,17.40
2018-09-25T11:09:30.554Z,17.30
2018-09-25T11:12:06.155Z,17.20
2018-09-25T11:14:42.254Z,17.30
2018-09-25T11:17:17.053Z,17.10
2018-09-25T11:19:52.025Z,17.00
2018-09-25T11:22:26.820Z,17.00
2018-09-25T11:25:01.640Z,17.00
2018-09-25T11:27:37.568Z,16.90
2018-09-25T11:30:12.632Z,16.80
2018-09-25T11:32:47.698Z,16.70
2018-09-25T11:35:22.427Z,16.80
2018-09-25T11:38:01.804Z,16.90
2018-09-25T11:40:36.888Z,16.90
2018-09-25T11:43:12.155Z,16.90
2018-09-25T11:45:47.821Z,16.90
2018-09-25T11:48:22.462Z,16.90
2018-09-25T11:50:58.590Z,16.90
2018-09-25T11:53:33.330Z,17.00
2018-09-25T11:56:08.258Z,17.00
2018-09-25T11:58:43.442Z,17.10
2018-09-25T12:01:18.562Z,17.30
2018-09-25T12:03:54.949Z,17.50
2018-09-25T12:06:31.802Z,17.70
2018-09-25T12:09:06.833Z,17.90
2018-09-25T12:11:54.232Z,18.00
2018-09-25T12:14:29.106Z,18.10
2018-09-25T12:17:05.742Z,18.30
2018-09-25T12:19:41.558Z,18.40
2018-09-25T12:22:16.396Z,18.60
2018-09-25T12:24:51.334Z,18.80
2018-09-25T12:27:26.176Z,19.10
2018-09-25T12:30:02.515Z,19.30
2018-09-25T12:32:38.832Z,19.40
2018-09-25T12:35:14.980Z,19.50
2018-09-25T12:37:50.911Z,19.60
2018-09-25T12:40:26.149Z,19.70
2018-09-25T12:43:00.985Z,19.90
2018-09-25T12:45:36.035Z,20.10
2018-09-25T12:48:11.788Z,20.30
2018-09-25T12:50:46.523Z,20.40
2018-09-25T12:53:21.353Z,20.60
2018-09-25T12:55:56.489Z,20.60
2018-09-25T12:58:31.527Z,20.70
2018-09-25T13:01:06.475Z,20.90
2018-09-25T13:03:41.272Z,21.00
2018-09-25T13:06:16.049Z,21.20
2018-09-25T13:08:50.937Z,21.20
2018-09-25T13:11:25.826Z,21.20
2018-09-25T13:14:00.523Z,21.10
2018-09-25T13:16:35.269Z,21.00
2018-09-25T13:19:14.407Z,20.90
2018-09-25T13:21:49.110Z,20.80
2018-09-25T13:24:24.441Z,21.00
2018-09-25T13:26:59.346Z,21.20
2018-09-25T13:29:34.615Z,21.30
2018-09-25T13:32:09.356Z,21.40
2018-09-25T13:34:44.653Z,21.50
2018-09-25T13:37:19.951Z,21.70
2018-09-25T13:39:54.700Z,21.90
2018-09-25T13:42:29.430Z,22.10
2018-09-25T13:45:04.349Z,22.30
2018-09-25T13:47:39.036Z,22.40
2018-09-25T13:50:14.010Z,22.60
2018-09-25T13:52:49.507Z,22.70
2018-09-25T13:55:24.324Z,22.80
2018-09-25T13:57:59.297Z,22.90
2018-09-25T14:00:34.209Z,23.00
2018-09-25T14:03:09.552Z,22.80
2018-09-25T14:05:44.455Z,22.70
2018-09-25T14:08:19.239Z,22.80
2018-09-25T14:10:54.957Z,22.90
2018-09-25T14:13:29.773Z,23.00
2018-09-25T14:16:05.216Z,23.10
2018-09-25T14:18:40.567Z,23.20
2018-09-25T14:21:15.425Z,23.30
2018-09-25T14:23:51.353Z,23.40
2018-09-25T14:26:27.000Z,23.50
2018-09-25T14:29:02.774Z,23.70
2018-09-25T14:31:37.620Z,23.60
2018-09-25T14:34:12.486Z,23.70
2018-09-25T14:36:47.382Z,23.70
2018-09-25T14:39:22.370Z,23.70
2018-09-25T14:41:57.692Z,23.70
2018-09-25T14:44:32.812Z,23.60
2018-09-25T14:47:07.660Z,23.60
2018-09-25T14:49:42.721Z,23.60
2018-09-25T14:52:17.447Z,23.60
2018-09-25T14:54:52.686Z,23.60
2018-09-25T14:57:27.842Z,23.50
2018-09-25T15:00:03.050Z,23.50
2018-09-25T15:02:37.752Z,23.40
2018-09-25T15:05:12.630Z,23.30
2018-09-25T15:07:47.316Z,23.10
2018-09-25T15:10:22.951Z,22.90
2018-09-25T15:12:58.082Z,22.70
2018-09-25T15:15:37.549Z,22.30
2018-09-25T15:18:12.637Z,22.00
2018-09-25T15:20:49.849Z,21.60
2018-09-25T15:23:25.576Z,21.30
2018-09-25T15:26:00.422Z,20.90
2018-09-25T15:28:35.600Z,20.50
2018-09-25T15:31:10.664Z,20.10
2018-09-25T15:33:45.528Z,19.80
2018-09-25T15:36:21.148Z,19.40
2018-09-25T15:38:55.939Z,19.00
2018-09-25T15:41:31.286Z,18.70
2018-09-25T15:44:06.080Z,18.40
2018-09-25T15:46:41.557Z,18.00
2018-09-25T15:49:16.723Z,17.70
2018-09-25T15:51:51.553Z,17.40
2018-09-25T15:54:26.220Z,17.10
2018-09-25T15:57:02.011Z,16.80
2018-09-25T15:59:37.824Z,16.50
2018-09-25T16:02:12.592Z,16.30
2018-09-25T16:04:47.601Z,16.00
2018-09-25T16:07:22.691Z,15.80
2018-09-25T16:09:57.724Z,15.60
2018-09-25T16:12:32.966Z,15.40
2018-09-25T16:15:07.564Z,15.20
2018-09-25T16:17:42.593Z,15.10
2018-09-25T16:20:17.835Z,14.90
2018-09-25T16:22:52.997Z,14.70
2018-09-25T16:25:33.676Z,14.60
2018-09-25T16:30:42.885Z,14.40
2018-09-25T16:33:17.955Z,14.10
2018-09-25T16:35:54.247Z,13.90
2018-09-25T16:38:29.080Z,13.70
2018-09-25T16:41:04.610Z,13.50
2018-09-25T16:43:39.461Z,13.40
2018-09-25T16:46:14.777Z,13.30
2018-09-25T16:48:49.572Z,13.10
2018-09-25T16:51:24.463Z,12.90
2018-09-25T16:53:59.233Z,12.80
2018-09-25T16:56:34.635Z,12.60
2018-09-25T16:59:09.709Z,12.50
2018-09-25T17:01:46.139Z,12.30
2018-09-25T17:04:21.177Z,12.10
2018-09-25T17:06:56.547Z,11.90
2018-09-25T17:09:32.410Z,11.80
2018-09-25T17:12:07.203Z,11.70
2018-09-25T17:14:47.591Z,11.50
2018-09-25T17:17:22.401Z,11.40
2018-09-25T17:19:57.060Z,11.20
2018-09-25T17:22:31.670Z,11.00
2018-09-25T17:25:08.978Z,10.90
2018-09-25T17:27:43.680Z,10.70
2018-09-25T17:30:18.697Z,10.60
2018-09-25T17:32:53.628Z,10.40
2018-09-25T17:35:28.680Z,10.30
2018-09-25T17:38:08.376Z,10.10
2018-09-25T17:40:47.231Z,9.90
2018-09-25T17:43:23.580Z,9.80
2018-09-25T17:45:58.664Z,9.70
2018-09-25T17:48:33.644Z,9.50
2018-09-25T17:51:08.236Z,9.40
2018-09-25T17:53:43.583Z,9.20
2018-09-25T17:56:18.441Z,9.10
2018-09-25T17:58:57.407Z,9.00
2018-09-25T18:01:32.385Z,8.90
2018-09-25T18:04:07.238Z,8.80
2018-09-25T18:06:42.272Z,8.70
2018-09-25T18:09:17.710Z,8.50
2018-09-25T18:11:53.906Z,8.40
2018-09-25T18:14:28.896Z,8.30
2018-09-25T18:17:03.730Z,8.20
2018-09-25T18:19:38.846Z,8.10
2018-09-25T18:22:14.020Z,8.00
2018-09-25T18:24:52.863Z,7.90
2018-09-25T18:27:29.233Z,7.80
2018-09-25T18:30:04.407Z,7.70
2018-09-25T18:32:39.360Z,7.60
2018-09-25T18:35:17.176Z,7.60
2018-09-25T18:37:52.752Z,7.50
2018-09-25T18:40:27.550Z,7.40
2018-09-25T18:43:02.406Z,7.40
2018-09-25T18:45:37.323Z,7.30
2018-09-25T18:48:12.665Z,7.20
2018-09-25T18:50:48.505Z,7.20
2018-09-25T18:53:28.775Z,7.10
2018-09-25T18:56:06.409Z,7.00
2018-09-25T18:58:42.413Z,6.90
2018-09-25T19:01:17.673Z,6.80
2018-09-25T19:03:52.750Z,6.80
2018-09-25T19:06:27.847Z,6.80
2018-09-25T19:09:02.464Z,6.70
2018-09-25T19:11:37.339Z,6.60
2018-09-25T19:14:12.667Z,6.60
2018-09-25T19:16:49.010Z,6.50
2018-09-25T19:19:23.798Z,6.40
2018-09-25T19:21:59.817Z,6.40
2018-09-25T19:24:35.841Z,6.30
2018-09-25T19:27:11.403Z,6.20
2018-09-25T19:29:46.726Z,6.10
2018-09-25T19:32:21.609Z,6.10
2018-09-25T19:34:56.713Z,6.00
2018-09-25T19:37:31.497Z,6.00
2018-09-25T19:40:06.814Z,6.00
2018-09-25T19:42:41.615Z,6.00
2018-09-25T19:45:16.487Z,5.90
2018-09-25T19:47:51.729Z,5.90
2018-09-25T19:50:27.822Z,5.90
2018-09-25T19:53:03.238Z,5.90
2018-09-25T19:55:42.704Z,5.90
2018-09-25T19:58:17.386Z,5.90
2018-09-25T20:00:53.534Z,5.80
2018-09-25T20:03:28.319Z,5.80
2018-09-25T20:06:04.062Z,5.80
2018-09-25T20:08:39.440Z,5.80
2018-09-25T20:11:14.283Z,5.70
2018-09-25T20:13:50.104Z,5.70
2018-09-25T20:16:26.242Z,5.60
2018-09-25T20:19:02.079Z,5.60
2018-09-25T20:21:38.722Z,5.50
2018-09-25T20:24:13.568Z,5.40
2018-09-25T20:26:48.868Z,5.30
2018-09-25T20:29:23.803Z,5.20
2018-09-25T20:31:58.777Z,5.20
2018-09-25T20:34:35.278Z,5.10
2018-09-25T20:37:10.995Z,5.10
2018-09-25T20:39:45.881Z,5.00
2018-09-25T20:42:20.465Z,5.00
2018-09-25T20:44:55.301Z,4.90
2018-09-25T20:47:29.942Z,4.90
2018-09-25T20:50:05.279Z,4.90
2018-09-25T20:52:40.063Z,4.90
2018-09-25T20:55:14.926Z,4.80
2018-09-25T20:57:49.599Z,4.80
2018-09-25T21:00:24.173Z,4.80
2018-09-25T21:02:59.163Z,4.80
2018-09-25T21:05:40.571Z,4.70
2018-09-25T21:08:15.873Z,4.70
2018-09-25T21:10:50.484Z,4.70
2018-09-25T21:13:26.441Z,4.60
2018-09-25T21:16:01.371Z,4.60
2018-09-25T21:18:36.047Z,4.60
2018-09-25T21:21:10.987Z,4.60
2018-09-25T21:23:45.631Z,4.60
2018-09-25T21:26:20.381Z,4.50
2018-09-25T21:28:55.144Z,4.50
2018-09-25T21:31:30.630Z,4.50
2018-09-25T21:34:05.135Z,4.50
2018-09-25T21:36:40.072Z,4.50
2018-09-25T21:39:16.047Z,4.40
2018-09-25T21:41:51.754Z,4.40
2018-09-25T21:44:26.977Z,4.30
2018-09-25T21:47:01.700Z,4.30
2018-09-25T21:49:36.921Z,4.20
2018-09-25T21:52:11.997Z,4.20
2018-09-25T21:54:47.246Z,4.20
2018-09-25T21:57:26.723Z,4.20
2018-09-25T22:00:01.819Z,4.10
2018-09-25T22:02:37.224Z,4.10
2018-09-25T22:05:12.548Z,4.10
2018-09-25T22:07:47.972Z,4.00
2018-09-25T22:10:23.715Z,4.00
2018-09-25T22:12:58.429Z,4.00
2018-09-25T22:15:33.759Z,3.90
2018-09-25T22:18:08.577Z,3.90
2018-09-25T22:20:43.301Z,3.90
2018-09-25T22:23:18.140Z,3.90
2018-09-25T22:25:53.956Z,3.90
2018-09-25T22:28:28.839Z,3.80
2018-09-25T22:31:03.665Z,3.80
2018-09-25T22:33:38.399Z,3.80
2018-09-25T22:36:13.827Z,3.70
2018-09-25T22:38:49.112Z,3.70
2018-09-25T22:41:24.769Z,3.70
2018-09-25T22:44:00.214Z,3.60
2018-09-25T22:46:35.707Z,3.60
2018-09-25T22:49:10.995Z,3.60
2018-09-25T22:51:45.738Z,3.50
2018-09-25T22:54:20.775Z,3.40
2018-09-25T22:56:55.584Z,3.40
2018-09-25T22:59:30.442Z,3.40
2018-09-25T23:02:05.062Z,3.30
2018-09-25T23:04:39.764Z,3.20
2018-09-25T23:07:15.786Z,3.20
2018-09-25T23:09:50.624Z,3.10
2018-09-25T23:12:25.969Z,3.10
2018-09-25T23:15:00.677Z,3.10
2018-09-25T23:17:36.209Z,3.00
2018-09-25T23:20:10.978Z,3.00
2018-09-25T23:22:46.375Z,3.00
2018-09-25T23:25:21.339Z,3.00
2018-09-25T23:27:56.121Z,3.00
2018-09-25T23:30:30.861Z,2.90
2018-09-25T23:33:05.623Z,2.90
2018-09-25T23:35:40.338Z,2.80
2018-09-25T23:38:15.086Z,2.80
2018-09-25T23:42:52.892Z,2.80
2018-09-25T23:45:27.881Z,2.70
2018-09-25T23:48:04.467Z,2.70
2018-09-25T23:51:41.229Z,2.70
2018-09-25T23:55:15.789Z,2.70
2018-09-25T23:57:52.271Z,2.70
